sensor_id;sensor_type;location;lat;lon;timestamp;P1;durP1;ratioP1;P2;durP2;ratioP2
31618;SDS011;18230;51.502;7.108;2023-10-09T00:03:59;45.80;;;17.23;;
31618;SDS011;18230;51.502;7.108;2023-10-09T00:09:05;34.95;;;16.42;;
31618;SDS011;18230;51.502;7.108;2023-10-09T00:14:17;39.65;;;19.30;;
31618;SDS011;18230;51.502;7.108;2023-10-09T00:19:18;36.80;;;17.73;;
31618;SDS011;18230;51.502;7.108;2023-10-09T00:24:19;47.58;;;18.25;;
31618;SDS011;18230;51.502;7.108;2023-10-09T00:29:23;36.88;;;16.73;;
31618;SDS011;18230;51.502;7.108;2023-10-09T00:34:28;40.70;;;17.48;;
31618;SDS011;18230;51.502;7.108;2023-10-09T00:39:28;35.90;;;17.67;;
31618;SDS011;18230;51.502;7.108;2023-10-09T00:44:38;35.60;;;16.40;;
31618;SDS011;18230;51.502;7.108;2023-10-09T00:49:42;34.17;;;15.52;;
31618;SDS011;18230;51.502;7.108;2023-10-09T00:54:44;33.28;;;15.23;;
31618;SDS011;18230;51.502;7.108;2023-10-09T01:10:00;32.20;;;14.27;;
31618;SDS011;18230;51.502;7.108;2023-10-09T01:15:10;30.92;;;15.02;;
31618;SDS011;18230;51.502;7.108;2023-10-09T01:20:29;24.88;;;13.50;;
31618;SDS011;18230;51.502;7.108;2023-10-09T01:30:45;28.70;;;14.18;;
31618;SDS011;18230;51.502;7.108;2023-10-09T01:35:48;30.02;;;14.38;;
31618;SDS011;18230;51.502;7.108;2023-10-09T01:40:50;23.88;;;12.70;;
31618;SDS011;18230;51.502;7.108;2023-10-09T01:45:51;27.33;;;12.73;;
31618;SDS011;18230;51.502;7.108;2023-10-09T01:50:52;30.88;;;14.05;;
31618;SDS011;18230;51.502;7.108;2023-10-09T01:55:53;28.42;;;13.60;;
31618;SDS011;18230;51.502;7.108;2023-10-09T02:00:55;26.95;;;14.13;;
31618;SDS011;18230;51.502;7.108;2023-10-09T02:05:56;25.88;;;12.55;;
31618;SDS011;18230;51.502;7.108;2023-10-09T02:11:00;28.20;;;13.55;;
31618;SDS011;18230;51.502;7.108;2023-10-09T02:16:02;22.08;;;12.73;;
31618;SDS011;18230;51.502;7.108;2023-10-09T02:21:16;26.58;;;12.95;;
31618;SDS011;18230;51.502;7.108;2023-10-09T02:26:17;24.65;;;13.23;;
31618;SDS011;18230;51.502;7.108;2023-10-09T02:31:26;27.15;;;13.63;;
31618;SDS011;18230;51.502;7.108;2023-10-09T02:36:47;27.10;;;13.13;;
31618;SDS011;18230;51.502;7.108;2023-10-09T02:41:57;31.58;;;13.75;;
31618;SDS011;18230;51.502;7.108;2023-10-09T02:47:21;22.92;;;11.95;;
31618;SDS011;18230;51.502;7.108;2023-10-09T02:52:25;23.17;;;12.45;;
31618;SDS011;18230;51.502;7.108;2023-10-09T03:02:41;24.27;;;12.02;;
31618;SDS011;18230;51.502;7.108;2023-10-09T03:07:42;22.90;;;12.77;;
31618;SDS011;18230;51.502;7.108;2023-10-09T03:12:44;30.65;;;12.82;;
31618;SDS011;18230;51.502;7.108;2023-10-09T03:17:45;27.70;;;12.63;;
31618;SDS011;18230;51.502;7.108;2023-10-09T03:22:47;24.92;;;12.38;;
31618;SDS011;18230;51.502;7.108;2023-10-09T03:27:49;21.77;;;12.60;;
31618;SDS011;18230;51.502;7.108;2023-10-09T03:32:50;23.52;;;12.20;;
31618;SDS011;18230;51.502;7.108;2023-10-09T03:37:53;26.92;;;12.98;;
31618;SDS011;18230;51.502;7.108;2023-10-09T03:42:57;28.25;;;12.25;;
31618;SDS011;18230;51.502;7.108;2023-10-09T03:47:58;24.48;;;12.10;;
31618;SDS011;18230;51.502;7.108;2023-10-09T03:53:24;26.25;;;12.13;;
31618;SDS011;18230;51.502;7.108;2023-10-09T03:58:25;23.67;;;12.70;;
31618;SDS011;18230;51.502;7.108;2023-10-09T04:03:33;25.10;;;12.77;;
31618;SDS011;18230;51.502;7.108;2023-10-09T04:08:36;29.75;;;12.02;;
31618;SDS011;18230;51.502;7.108;2023-10-09T04:13:46;19.77;;;11.32;;
31618;SDS011;18230;51.502;7.108;2023-10-09T04:18:47;23.60;;;11.57;;
31618;SDS011;18230;51.502;7.108;2023-10-09T04:23:48;25.48;;;12.63;;
31618;SDS011;18230;51.502;7.108;2023-10-09T04:29:09;22.80;;;10.77;;
31618;SDS011;18230;51.502;7.108;2023-10-09T04:34:10;21.13;;;10.82;;
31618;SDS011;18230;51.502;7.108;2023-10-09T04:39:23;25.08;;;11.95;;
31618;SDS011;18230;51.502;7.108;2023-10-09T04:44:30;26.83;;;11.90;;
31618;SDS011;18230;51.502;7.108;2023-10-09T04:49:39;26.13;;;11.52;;
31618;SDS011;18230;51.502;7.108;2023-10-09T04:54:48;27.77;;;12.13;;
31618;SDS011;18230;51.502;7.108;2023-10-09T05:00:17;23.02;;;10.98;;
31618;SDS011;18230;51.502;7.108;2023-10-09T05:05:27;27.40;;;11.73;;
31618;SDS011;18230;51.502;7.108;2023-10-09T05:10:40;22.52;;;11.90;;
31618;SDS011;18230;51.502;7.108;2023-10-09T05:15:54;24.92;;;12.23;;
31618;SDS011;18230;51.502;7.108;2023-10-09T05:20:56;21.63;;;11.13;;
31618;SDS011;18230;51.502;7.108;2023-10-09T05:26:17;22.17;;;11.15;;
31618;SDS011;18230;51.502;7.108;2023-10-09T05:31:41;22.52;;;11.38;;
31618;SDS011;18230;51.502;7.108;2023-10-09T05:37:03;21.73;;;11.13;;
31618;SDS011;18230;51.502;7.108;2023-10-09T05:42:25;20.90;;;11.07;;
31618;SDS011;18230;51.502;7.108;2023-10-09T05:47:41;22.70;;;10.85;;
31618;SDS011;18230;51.502;7.108;2023-10-09T05:52:58;18.00;;;10.63;;
31618;SDS011;18230;51.502;7.108;2023-10-09T05:58:01;20.65;;;11.00;;
31618;SDS011;18230;51.502;7.108;2023-10-09T06:03:20;27.20;;;12.68;;
31618;SDS011;18230;51.502;7.108;2023-10-09T06:08:21;23.73;;;11.32;;
31618;SDS011;18230;51.502;7.108;2023-10-09T06:13:41;20.33;;;11.10;;
31618;SDS011;18230;51.502;7.108;2023-10-09T06:18:46;23.60;;;11.32;;
31618;SDS011;18230;51.502;7.108;2023-10-09T06:24:10;23.45;;;11.10;;
31618;SDS011;18230;51.502;7.108;2023-10-09T06:29:16;19.57;;;11.07;;
31618;SDS011;18230;51.502;7.108;2023-10-09T06:34:33;20.45;;;10.77;;
31618;SDS011;18230;51.502;7.108;2023-10-09T06:39:35;24.60;;;11.75;;
31618;SDS011;18230;51.502;7.108;2023-10-09T06:45:10;19.83;;;11.40;;
31618;SDS011;18230;51.502;7.108;2023-10-09T06:50:16;23.13;;;11.67;;
31618;SDS011;18230;51.502;7.108;2023-10-09T06:55:17;20.15;;;11.70;;
31618;SDS011;18230;51.502;7.108;2023-10-09T07:00:19;24.40;;;12.02;;
31618;SDS011;18230;51.502;7.108;2023-10-09T07:05:39;26.38;;;15.48;;
31618;SDS011;18230;51.502;7.108;2023-10-09T07:11:05;28.08;;;12.75;;
31618;SDS011;18230;51.502;7.108;2023-10-09T07:16:24;27.73;;;12.93;;
31618;SDS011;18230;51.502;7.108;2023-10-09T07:21:28;27.27;;;12.23;;
31618;SDS011;18230;51.502;7.108;2023-10-09T07:26:29;26.95;;;13.23;;
31618;SDS011;18230;51.502;7.108;2023-10-09T07:31:48;26.45;;;12.93;;
31618;SDS011;18230;51.502;7.108;2023-10-09T07:36:57;26.85;;;13.07;;
31618;SDS011;18230;51.502;7.108;2023-10-09T07:42:06;31.40;;;13.23;;
31618;SDS011;18230;51.502;7.108;2023-10-09T07:47:26;23.70;;;13.07;;
31618;SDS011;18230;51.502;7.108;2023-10-09T07:52:57;26.67;;;14.00;;
31618;SDS011;18230;51.502;7.108;2023-10-09T07:58:14;23.55;;;12.75;;
31618;SDS011;18230;51.502;7.108;2023-10-09T08:03:16;25.05;;;13.30;;
31618;SDS011;18230;51.502;7.108;2023-10-09T08:08:24;27.52;;;14.15;;
31618;SDS011;18230;51.502;7.108;2023-10-09T08:13:33;30.27;;;13.43;;
31618;SDS011;18230;51.502;7.108;2023-10-09T08:18:49;29.58;;;13.85;;
31618;SDS011;18230;51.502;7.108;2023-10-09T08:23:53;25.77;;;13.90;;
31618;SDS011;18230;51.502;7.108;2023-10-09T08:28:55;26.23;;;13.43;;
31618;SDS011;18230;51.502;7.108;2023-10-09T08:34:14;19.60;;;12.90;;
31618;SDS011;18230;51.502;7.108;2023-10-09T08:39:25;24.63;;;13.18;;
31618;SDS011;18230;51.502;7.108;2023-10-09T08:44:26;33.30;;;15.05;;
31618;SDS011;18230;51.502;7.108;2023-10-09T08:49:29;28.17;;;14.30;;
31618;SDS011;18230;51.502;7.108;2023-10-09T08:54:33;27.08;;;14.68;;
31618;SDS011;18230;51.502;7.108;2023-10-09T08:59:35;24.63;;;13.65;;
31618;SDS011;18230;51.502;7.108;2023-10-09T09:04:42;27.60;;;14.63;;
31618;SDS011;18230;51.502;7.108;2023-10-09T09:09:54;29.25;;;15.13;;
31618;SDS011;18230;51.502;7.108;2023-10-09T09:15:03;38.20;;;14.35;;
31618;SDS011;18230;51.502;7.108;2023-10-09T09:20:18;28.27;;;14.27;;
31618;SDS011;18230;51.502;7.108;2023-10-09T09:25:24;28.42;;;14.40;;
31618;SDS011;18230;51.502;7.108;2023-10-09T09:30:39;27.10;;;12.45;;
31618;SDS011;18230;51.502;7.108;2023-10-09T09:35:55;23.10;;;12.85;;
31618;SDS011;18230;51.502;7.108;2023-10-09T09:40:59;24.38;;;12.88;;
31618;SDS011;18230;51.502;7.108;2023-10-09T09:46:02;21.30;;;12.50;;
31618;SDS011;18230;51.502;7.108;2023-10-09T09:51:07;27.58;;;12.75;;
31618;SDS011;18230;51.502;7.108;2023-10-09T09:56:08;24.08;;;13.13;;
31618;SDS011;18230;51.502;7.108;2023-10-09T10:01:16;24.27;;;12.35;;
31618;SDS011;18230;51.502;7.108;2023-10-09T10:06:24;27.83;;;13.27;;
31618;SDS011;18230;51.502;7.108;2023-10-09T10:17:04;25.08;;;13.10;;
31618;SDS011;18230;51.502;7.108;2023-10-09T10:22:24;21.00;;;11.15;;
31618;SDS011;18230;51.502;7.108;2023-10-09T10:27:27;25.55;;;13.15;;
31618;SDS011;18230;51.502;7.108;2023-10-09T10:37:52;21.70;;;11.77;;
31618;SDS011;18230;51.502;7.108;2023-10-09T10:43:03;20.52;;;11.98;;
31618;SDS011;18230;51.502;7.108;2023-10-09T10:48:13;25.65;;;12.07;;
31618;SDS011;18230;51.502;7.108;2023-10-09T10:53:28;20.60;;;12.13;;
31618;SDS011;18230;51.502;7.108;2023-10-09T10:58:35;22.52;;;13.40;;
31618;SDS011;18230;51.502;7.108;2023-10-09T11:03:47;23.58;;;12.38;;
31618;SDS011;18230;51.502;7.108;2023-10-09T11:08:53;22.80;;;11.65;;
31618;SDS011;18230;51.502;7.108;2023-10-09T11:13:54;26.27;;;12.02;;
31618;SDS011;18230;51.502;7.108;2023-10-09T11:19:11;24.83;;;11.95;;
31618;SDS011;18230;51.502;7.108;2023-10-09T11:24:22;22.98;;;12.18;;
31618;SDS011;18230;51.502;7.108;2023-10-09T11:29:24;26.30;;;12.98;;
31618;SDS011;18230;51.502;7.108;2023-10-09T11:34:43;28.70;;;13.88;;
31618;SDS011;18230;51.502;7.108;2023-10-09T11:39:53;25.95;;;12.70;;
31618;SDS011;18230;51.502;7.108;2023-10-09T11:44:55;30.83;;;13.57;;
31618;SDS011;18230;51.502;7.108;2023-10-09T11:49:56;29.52;;;14.25;;
31618;SDS011;18230;51.502;7.108;2023-10-09T11:55:01;28.42;;;14.15;;
31618;SDS011;18230;51.502;7.108;2023-10-09T12:00:03;23.98;;;14.07;;
31618;SDS011;18230;51.502;7.108;2023-10-09T12:05:11;25.80;;;13.80;;
31618;SDS011;18230;51.502;7.108;2023-10-09T12:10:17;29.58;;;14.43;;
31618;SDS011;18230;51.502;7.108;2023-10-09T12:15:24;29.73;;;13.98;;
31618;SDS011;18230;51.502;7.108;2023-10-09T12:20:25;26.10;;;13.60;;
31618;SDS011;18230;51.502;7.108;2023-10-09T12:25:32;29.55;;;14.05;;
31618;SDS011;18230;51.502;7.108;2023-10-09T12:30:35;23.48;;;14.27;;
31618;SDS011;18230;51.502;7.108;2023-10-09T12:35:39;26.10;;;13.77;;
31618;SDS011;18230;51.502;7.108;2023-10-09T12:40:41;24.77;;;13.40;;
31618;SDS011;18230;51.502;7.108;2023-10-09T12:45:50;27.88;;;14.65;;
31618;SDS011;18230;51.502;7.108;2023-10-09T12:50:51;29.17;;;14.07;;
31618;SDS011;18230;51.502;7.108;2023-10-09T12:55:53;29.55;;;14.75;;
31618;SDS011;18230;51.502;7.108;2023-10-09T13:00:56;28.92;;;13.32;;
31618;SDS011;18230;51.502;7.108;2023-10-09T13:06:09;24.83;;;13.45;;
31618;SDS011;18230;51.502;7.108;2023-10-09T13:11:13;33.83;;;13.85;;
31618;SDS011;18230;51.502;7.108;2023-10-09T13:21:25;31.30;;;13.82;;
31618;SDS011;18230;51.502;7.108;2023-10-09T13:26:27;27.65;;;14.20;;
31618;SDS011;18230;51.502;7.108;2023-10-09T13:31:30;30.50;;;15.23;;
31618;SDS011;18230;51.502;7.108;2023-10-09T13:36:34;29.85;;;15.57;;
31618;SDS011;18230;51.502;7.108;2023-10-09T13:41:34;25.48;;;12.40;;
31618;SDS011;18230;51.502;7.108;2023-10-09T13:46:35;29.25;;;14.80;;
31618;SDS011;18230;51.502;7.108;2023-10-09T13:51:41;28.90;;;15.07;;
31618;SDS011;18230;51.502;7.108;2023-10-09T13:56:44;31.70;;;15.90;;
31618;SDS011;18230;51.502;7.108;2023-10-09T14:01:45;29.77;;;15.07;;
31618;SDS011;18230;51.502;7.108;2023-10-09T14:06:47;33.92;;;15.98;;
31618;SDS011;18230;51.502;7.108;2023-10-09T14:11:58;28.65;;;13.57;;
31618;SDS011;18230;51.502;7.108;2023-10-09T14:17:07;29.02;;;15.27;;
31618;SDS011;18230;51.502;7.108;2023-10-09T14:22:17;28.23;;;14.68;;
31618;SDS011;18230;51.502;7.108;2023-10-09T14:27:19;30.02;;;15.75;;
31618;SDS011;18230;51.502;7.108;2023-10-09T14:32:19;34.35;;;15.85;;
31618;SDS011;18230;51.502;7.108;2023-10-09T14:37:20;33.38;;;15.23;;
31618;SDS011;18230;51.502;7.108;2023-10-09T14:42:23;28.90;;;16.23;;
31618;SDS011;18230;51.502;7.108;2023-10-09T14:47:27;29.80;;;16.38;;
31618;SDS011;18230;51.502;7.108;2023-10-09T14:52:28;36.10;;;16.65;;
31618;SDS011;18230;51.502;7.108;2023-10-09T14:57:28;31.08;;;16.98;;
31618;SDS011;18230;51.502;7.108;2023-10-09T15:02:33;43.53;;;18.60;;
31618;SDS011;18230;51.502;7.108;2023-10-09T15:07:34;31.45;;;15.43;;
31618;SDS011;18230;51.502;7.108;2023-10-09T15:12:35;27.85;;;16.58;;
31618;SDS011;18230;51.502;7.108;2023-10-09T15:17:42;29.83;;;17.73;;
31618;SDS011;18230;51.502;7.108;2023-10-09T15:22:44;37.83;;;17.85;;
31618;SDS011;18230;51.502;7.108;2023-10-09T15:27:46;27.15;;;15.77;;
31618;SDS011;18230;51.502;7.108;2023-10-09T15:32:46;34.38;;;17.13;;
31618;SDS011;18230;51.502;7.108;2023-10-09T15:37:49;31.48;;;17.38;;
31618;SDS011;18230;51.502;7.108;2023-10-09T15:42:52;26.25;;;16.33;;
31618;SDS011;18230;51.502;7.108;2023-10-09T15:47:56;37.90;;;16.67;;
31618;SDS011;18230;51.502;7.108;2023-10-09T15:52:57;33.97;;;17.40;;
31618;SDS011;18230;51.502;7.108;2023-10-09T15:57:58;35.65;;;18.90;;
31618;SDS011;18230;51.502;7.108;2023-10-09T16:02:59;33.53;;;17.75;;
31618;SDS011;18230;51.502;7.108;2023-10-09T16:08:01;31.75;;;17.13;;
31618;SDS011;18230;51.502;7.108;2023-10-09T16:13:03;31.73;;;17.00;;
31618;SDS011;18230;51.502;7.108;2023-10-09T16:18:04;31.20;;;16.75;;
31618;SDS011;18230;51.502;7.108;2023-10-09T16:23:06;30.48;;;17.45;;
31618;SDS011;18230;51.502;7.108;2023-10-09T16:28:09;31.58;;;16.42;;
31618;SDS011;18230;51.502;7.108;2023-10-09T16:33:10;34.80;;;16.92;;
31618;SDS011;18230;51.502;7.108;2023-10-09T16:38:11;33.88;;;17.95;;
31618;SDS011;18230;51.502;7.108;2023-10-09T16:43:12;37.05;;;16.88;;
31618;SDS011;18230;51.502;7.108;2023-10-09T16:48:13;31.80;;;15.27;;
31618;SDS011;18230;51.502;7.108;2023-10-09T16:53:15;31.58;;;16.95;;
31618;SDS011;18230;51.502;7.108;2023-10-09T16:58:16;29.25;;;17.95;;
31618;SDS011;18230;51.502;7.108;2023-10-09T17:03:17;28.70;;;16.20;;
31618;SDS011;18230;51.502;7.108;2023-10-09T17:08:18;32.70;;;18.10;;
31618;SDS011;18230;51.502;7.108;2023-10-09T17:13:19;32.88;;;17.70;;
31618;SDS011;18230;51.502;7.108;2023-10-09T17:18:24;42.08;;;18.38;;
31618;SDS011;18230;51.502;7.108;2023-10-09T17:23:25;38.25;;;19.30;;
31618;SDS011;18230;51.502;7.108;2023-10-09T17:28:26;33.35;;;19.48;;
31618;SDS011;18230;51.502;7.108;2023-10-09T17:33:26;40.92;;;18.98;;
31618;SDS011;18230;51.502;7.108;2023-10-09T17:38:27;31.10;;;19.83;;
31618;SDS011;18230;51.502;7.108;2023-10-09T17:43:30;31.10;;;18.13;;
31618;SDS011;18230;51.502;7.108;2023-10-09T17:48:31;33.25;;;17.88;;
31618;SDS011;18230;51.502;7.108;2023-10-09T17:53:32;35.15;;;17.45;;
31618;SDS011;18230;51.502;7.108;2023-10-09T17:58:33;33.92;;;17.23;;
31618;SDS011;18230;51.502;7.108;2023-10-09T18:03:34;35.88;;;19.25;;
31618;SDS011;18230;51.502;7.108;2023-10-09T18:08:38;33.38;;;19.45;;
31618;SDS011;18230;51.502;7.108;2023-10-09T18:13:39;35.95;;;18.73;;
31618;SDS011;18230;51.502;7.108;2023-10-09T18:18:40;40.75;;;19.67;;
31618;SDS011;18230;51.502;7.108;2023-10-09T18:23:41;34.08;;;19.08;;
31618;SDS011;18230;51.502;7.108;2023-10-09T18:28:44;34.10;;;19.17;;
31618;SDS011;18230;51.502;7.108;2023-10-09T18:33:45;39.10;;;19.52;;
31618;SDS011;18230;51.502;7.108;2023-10-09T18:38:46;38.38;;;19.70;;
31618;SDS011;18230;51.502;7.108;2023-10-09T18:43:53;38.63;;;19.23;;
31618;SDS011;18230;51.502;7.108;2023-10-09T18:48:56;37.83;;;20.08;;
31618;SDS011;18230;51.502;7.108;2023-10-09T18:54:02;37.88;;;19.85;;
31618;SDS011;18230;51.502;7.108;2023-10-09T18:59:05;41.10;;;19.92;;
31618;SDS011;18230;51.502;7.108;2023-10-09T19:04:07;33.30;;;19.23;;
31618;SDS011;18230;51.502;7.108;2023-10-09T19:09:09;31.85;;;18.70;;
31618;SDS011;18230;51.502;7.108;2023-10-09T19:14:12;36.78;;;20.02;;
31618;SDS011;18230;51.502;7.108;2023-10-09T19:19:13;34.22;;;20.40;;
31618;SDS011;18230;51.502;7.108;2023-10-09T19:24:14;39.90;;;20.15;;
31618;SDS011;18230;51.502;7.108;2023-10-09T19:29:14;33.17;;;19.08;;
31618;SDS011;18230;51.502;7.108;2023-10-09T19:34:15;36.08;;;20.75;;
31618;SDS011;18230;51.502;7.108;2023-10-09T19:39:16;32.20;;;19.15;;
31618;SDS011;18230;51.502;7.108;2023-10-09T19:44:17;35.75;;;20.17;;
31618;SDS011;18230;51.502;7.108;2023-10-09T19:49:17;34.83;;;19.58;;
31618;SDS011;18230;51.502;7.108;2023-10-09T19:54:18;29.17;;;18.30;;
31618;SDS011;18230;51.502;7.108;2023-10-09T19:59:21;35.97;;;20.92;;
31618;SDS011;18230;51.502;7.108;2023-10-09T20:04:21;39.65;;;21.55;;
31618;SDS011;18230;51.502;7.108;2023-10-09T20:09:25;35.03;;;19.90;;
31618;SDS011;18230;51.502;7.108;2023-10-09T20:14:25;40.50;;;20.95;;
31618;SDS011;18230;51.502;7.108;2023-10-09T20:19:26;44.78;;;21.70;;
31618;SDS011;18230;51.502;7.108;2023-10-09T20:24:27;38.78;;;20.88;;
31618;SDS011;18230;51.502;7.108;2023-10-09T20:29:29;43.55;;;23.38;;
31618;SDS011;18230;51.502;7.108;2023-10-09T20:34:34;36.42;;;20.30;;
31618;SDS011;18230;51.502;7.108;2023-10-09T20:39:35;36.65;;;21.80;;
31618;SDS011;18230;51.502;7.108;2023-10-09T20:44:40;42.40;;;21.40;;
31618;SDS011;18230;51.502;7.108;2023-10-09T20:49:42;33.65;;;20.05;;
31618;SDS011;18230;51.502;7.108;2023-10-09T20:54:43;45.17;;;21.80;;
31618;SDS011;18230;51.502;7.108;2023-10-09T20:59:45;51.08;;;21.90;;
31618;SDS011;18230;51.502;7.108;2023-10-09T21:04:46;37.45;;;21.00;;
31618;SDS011;18230;51.502;7.108;2023-10-09T21:09:47;44.22;;;20.90;;
31618;SDS011;18230;51.502;7.108;2023-10-09T21:14:48;37.20;;;20.58;;
31618;SDS011;18230;51.502;7.108;2023-10-09T21:19:48;40.45;;;20.83;;
31618;SDS011;18230;51.502;7.108;2023-10-09T21:24:49;41.08;;;20.48;;
31618;SDS011;18230;51.502;7.108;2023-10-09T21:29:50;35.15;;;20.60;;
31618;SDS011;18230;51.502;7.108;2023-10-09T21:34:51;35.25;;;20.50;;
31618;SDS011;18230;51.502;7.108;2023-10-09T21:39:51;37.45;;;21.08;;
31618;SDS011;18230;51.502;7.108;2023-10-09T21:44:52;39.20;;;21.10;;
31618;SDS011;18230;51.502;7.108;2023-10-09T21:49:53;39.47;;;20.20;;
31618;SDS011;18230;51.502;7.108;2023-10-09T21:54:54;39.00;;;21.55;;
31618;SDS011;18230;51.502;7.108;2023-10-09T21:59:55;39.80;;;20.98;;
31618;SDS011;18230;51.502;7.108;2023-10-09T22:04:56;33.72;;;20.75;;
31618;SDS011;18230;51.502;7.108;2023-10-09T22:09:56;40.85;;;21.80;;
31618;SDS011;18230;51.502;7.108;2023-10-09T22:14:57;44.03;;;21.15;;
31618;SDS011;18230;51.502;7.108;2023-10-09T22:20:00;44.97;;;23.35;;
31618;SDS011;18230;51.502;7.108;2023-10-09T22:25:04;40.28;;;23.83;;
31618;SDS011;18230;51.502;7.108;2023-10-09T22:30:06;46.38;;;24.30;;
31618;SDS011;18230;51.502;7.108;2023-10-09T22:35:13;41.58;;;24.42;;
31618;SDS011;18230;51.502;7.108;2023-10-09T22:40:14;50.30;;;25.92;;
31618;SDS011;18230;51.502;7.108;2023-10-09T22:45:26;44.13;;;23.58;;
31618;SDS011;18230;51.502;7.108;2023-10-09T22:50:30;46.03;;;24.38;;
31618;SDS011;18230;51.502;7.108;2023-10-09T22:55:40;48.08;;;26.05;;
31618;SDS011;18230;51.502;7.108;2023-10-09T23:05:51;47.67;;;25.25;;
31618;SDS011;18230;51.502;7.108;2023-10-09T23:11:08;54.75;;;29.75;;
31618;SDS011;18230;51.502;7.108;2023-10-09T23:16:10;49.20;;;28.85;;
31618;SDS011;18230;51.502;7.108;2023-10-09T23:21:14;53.08;;;27.95;;
31618;SDS011;18230;51.502;7.108;2023-10-09T23:26:22;51.58;;;32.40;;
31618;SDS011;18230;51.502;7.108;2023-10-09T23:31:26;55.35;;;30.45;;
31618;SDS011;18230;51.502;7.108;2023-10-09T23:36:35;50.05;;;29.60;;
31618;SDS011;18230;51.502;7.108;2023-10-09T23:41:43;61.60;;;31.00;;
31618;SDS011;18230;51.502;7.108;2023-10-09T23:46:58;50.38;;;29.83;;
31618;SDS011;18230;51.502;7.108;2023-10-09T23:51:59;55.17;;;31.30;;
31618;SDS011;18230;51.502;7.108;2023-10-09T23:57:00;54.50;;;32.70;;
